Time;durP1;ratioP1;P1;durP2;ratioP2;P2;SDS_P1;SDS_P2;PMS_P1;PMS_P2;Temp;Humidity;BMP_temperature;BMP_pressure;BME280_temperature;BME280_humidity;BME280_pressure;Samples;Min_cycle;Max_cycle;Signal;HPM_P1;HPM_P2
2022/05/15 00:01:56;;;;;;;13.20;4.50;;;;;;;11.13;58.52;100193.91;107944;1268;95825;-70
2022/05/15 00:04:28;;;;;;;13.40;4.80;;;;;;;11.13;58.52;100196.35;106776;1268;137880;-69
2022/05/15 00:07:00;;;;;;;16.30;5.20;;;;;;;11.12;58.58;100196.39;106332;1271;108162;-69
2022/05/15 00:09:33;;;;;;;18.70;6.10;;;;;;;11.09;58.64;100192.84;107833;1268;138115;-68
2022/05/15 00:12:06;;;;;;;13.50;5.20;;;;;;;11.07;58.65;100197.09;107883;1268;97700;-69
2022/05/15 00:14:38;;;;;;;15.00;5.70;;;;;;;11.07;58.66;100191.52;107913;1268;96522;-70
2022/05/15 00:17:10;;;;;;;13.80;5.30;;;;;;;11.07;58.88;100193.97;107794;1267;137779;-69
2022/05/15 00:19:43;;;;;;;13.80;5.10;;;;;;;11.03;58.88;100192.73;107892;1268;109440;-69
2022/05/15 00:22:15;;;;;;;12.60;5.50;;;;;;;10.96;58.85;100192.10;107821;1268;138876;-70
2022/05/15 00:24:47;;;;;;;11.30;5.00;;;;;;;10.89;59.04;100195.08;107909;1268;96260;-70
2022/05/15 00:27:19;;;;;;;13.10;5.10;;;;;;;10.85;59.21;100197.86;107793;1268;139297;-69
2022/05/15 00:29:51;;;;;;;8.80;4.10;;;;;;;10.82;59.26;100198.83;107938;1268;110249;-70
2022/05/15 00:32:23;;;;;;;12.80;4.60;;;;;;;10.79;59.33;100200.29;107922;1268;108362;-70
2022/05/15 00:34:55;;;;;;;14.30;4.60;;;;;;;10.81;59.33;100206.50;107702;1267;138810;-70
2022/05/15 00:37:27;;;;;;;13.70;4.60;;;;;;;10.84;59.51;100208.84;107888;1268;97838;-70
2022/05/15 00:39:59;;;;;;;11.30;4.10;;;;;;;10.84;59.50;100207.80;106517;1268;137771;-70
2022/05/15 00:42:31;;;;;;;14.50;4.40;;;;;;;10.83;59.52;100208.71;106472;1268;111914;-70
2022/05/15 00:45:05;;;;;;;11.40;4.10;;;;;;;10.80;59.42;100210.17;107205;1268;109322;-70
2022/05/15 00:47:37;;;;;;;11.10;4.50;;;;;;;10.77;59.63;100209.59;106541;1268;109027;-70
2022/05/15 00:50:14;;;;;;;10.60;3.70;;;;;;;10.73;59.54;100208.00;106413;1268;97822;-70
2022/05/15 00:52:49;;;;;;;13.70;3.80;;;;;;;10.67;59.50;100201.27;107822;1268;138830;-70
2022/05/15 00:55:30;;;;;;;9.50;3.40;;;;;;;10.62;59.79;100200.90;107915;1268;111374;-69
2022/05/15 00:58:07;;;;;;;9.50;3.60;;;;;;;10.56;59.80;100202.46;107139;1268;137855;-69
2022/05/15 01:00:42;;;;;;;9.70;3.60;;;;;;;10.53;59.92;100201.35;106468;1268;108916;-69
2022/05/15 01:03:17;;;;;;;7.80;3.50;;;;;;;10.50;60.01;100202.66;106759;1268;139019;-70
2022/05/15 01:05:52;;;;;;;13.40;3.50;;;;;;;10.49;59.95;100204.42;107979;1268;95750;-70
2022/05/15 01:08:28;;;;;;;9.20;3.30;;;;;;;10.48;60.08;100204.66;107693;1268;111682;-68
2022/05/15 01:11:08;;;;;;;14.20;3.60;;;;;;;10.48;60.12;100202.92;106478;1268;137816;-69
2022/05/15 01:13:43;;;;;;;9.10;3.60;;;;;;;10.49;59.98;100201.65;107606;1268;108746;-70
2022/05/15 01:16:21;;;;;;;13.30;3.80;;;;;;;10.49;60.05;100201.83;106819;1268;138511;-69
2022/05/15 01:18:57;;;;;;;9.40;3.60;;;;;;;10.46;60.05;100203.85;106717;1268;97901;-70
2022/05/15 01:21:31;;;;;;;;;;;;;;;10.41;60.14;100203.65;107833;1268;138706;-69
2022/05/15 01:24:04;;;;;;;13.70;3.90;;;;;;;10.36;60.13;100200.50;107935;1268;109037;-69
2022/05/15 01:26:39;;;;;;;7.60;3.50;;;;;;;10.31;60.18;100202.08;107883;1268;105582;-69
2022/05/15 01:29:14;;;;;;;14.70;4.10;;;;;;;10.26;60.33;100205.36;107714;1268;138423;-69
2022/05/15 01:31:48;;;;;;;8.90;3.40;;;;;;;10.23;60.41;100206.15;107870;1268;96257;-68
2022/05/15 01:34:20;;;;;;;10.00;3.30;;;;;;;10.22;60.45;100206.84;107781;1268;138901;-69
2022/05/15 01:36:52;;;;;;;8.30;2.80;;;;;;;10.21;60.51;100209.64;107846;1268;108859;-70
2022/05/15 01:39:25;;;;;;;12.50;3.20;;;;;;;10.23;60.52;100210.12;107798;1267;138727;-69
2022/05/15 01:41:58;;;;;;;13.00;3.10;;;;;;;10.26;60.57;100211.77;107941;1267;95971;-69
2022/05/15 01:44:30;;;;;;;9.30;3.20;;;;;;;10.27;60.56;100215.56;106758;1268;97857;-70
2022/05/15 01:47:03;;;;;;;11.10;3.30;;;;;;;10.30;60.63;100217.23;106293;1268;137950;-71
2022/05/15 01:49:37;;;;;;;7.90;3.30;;;;;;;10.31;60.49;100215.27;107659;1268;109388;-71
2022/05/15 01:52:10;;;;;;;10.40;3.60;;;;;;;10.29;60.53;100215.17;106368;1268;138164;-70
2022/05/15 01:54:42;;;;;;;12.40;3.60;;;;;;;10.25;60.48;100215.99;106431;1268;97812;-69
2022/05/15 01:57:14;;;;;;;10.70;3.40;;;;;;;10.20;60.56;100216.98;106360;1268;138725;-69
2022/05/15 01:59:47;;;;;;;8.40;3.30;;;;;;;10.16;60.65;100214.15;106360;1269;113533;-69
2022/05/15 02:02:19;;;;;;;8.70;3.70;;;;;;;10.08;60.72;100213.89;107214;1258;108391;-69
2022/05/15 02:04:52;;;;;;;12.20;3.10;;;;;;;10.04;60.89;100217.29;107574;1270;138512;-69
2022/05/15 02:07:24;;;;;;;8.00;2.90;;;;;;;9.99;60.97;100214.32;107805;1270;96245;-69
2022/05/15 02:09:57;;;;;;;9.90;2.80;;;;;;;9.96;61.06;100221.00;106347;1270;138615;-68
2022/05/15 02:12:30;;;;;;;11.30;3.30;;;;;;;9.94;61.12;100219.34;107860;1270;112626;-71
2022/05/15 02:15:03;;;;;;;11.50;3.10;;;;;;;9.96;61.23;100222.05;107591;1270;109066;-69
2022/05/15 02:17:36;;;;;;;11.00;4.00;;;;;;;9.94;61.22;100222.83;106231;1271;109012;-69
2022/05/15 02:20:11;;;;;;;13.20;3.70;;;;;;;9.93;61.32;100224.92;107849;1270;95903;-70
2022/05/15 02:22:44;;;;;;;8.50;3.40;;;;;;;9.90;61.46;100223.81;107710;1269;138264;-69
2022/05/15 02:25:16;;;;;;;10.30;3.10;;;;;;;9.84;61.41;100225.88;106292;1270;110377;-69
2022/05/15 02:27:50;;;;;;;12.30;3.60;;;;;;;9.77;61.56;100225.92;106165;1270;138287;-69
2022/05/15 02:30:23;;;;;;;13.10;3.40;;;;;;;9.71;61.70;100227.84;107442;1270;107619;-70
2022/05/15 02:32:56;;;;;;;9.40;3.70;;;;;;;9.64;61.91;100228.89;107838;1270;95934;-70
2022/05/15 02:35:28;;;;;;;6.60;2.70;;;;;;;9.59;61.95;100231.48;107753;1270;138806;-70
2022/05/15 02:38:00;;;;;;;10.10;3.10;;;;;;;9.52;62.02;100229.92;107780;1270;111704;-69
2022/05/15 02:40:33;;;;;;;10.10;3.20;;;;;;;9.50;62.28;100230.16;107634;1270;139352;-69
2022/05/15 02:43:05;;;;;;;7.10;3.00;;;;;;;9.52;62.32;100229.42;106185;1271;108947;-69
2022/05/15 02:45:37;;;;;;;9.50;2.70;;;;;;;9.52;62.43;100230.46;107710;1270;139026;-70
2022/05/15 02:51:03;;;;;;;13.30;3.20;;;;;;;9.50;62.42;100233.43;107824;1270;96119;-70
2022/05/15 02:51:06;;;;;;;11.70;3.20;;;;;;;9.48;62.48;100232.83;106305;1270;112487;-70
2022/05/15 02:53:41;;;;;;;10.60;3.10;;;;;;;9.44;62.50;100231.55;107861;1270;109103;-70
2022/05/15 02:56:17;;;;;;;10.10;3.50;;;;;;;9.40;62.52;100233.20;107696;1270;109164;-70
2022/05/15 02:58:49;;;;;;;8.30;3.00;;;;;;;9.37;62.57;100235.20;106319;1270;137890;-70
2022/05/15 03:01:22;;;;;;;7.30;2.80;;;;;;;9.34;62.64;100238.95;107859;1270;96091;-70
2022/05/15 03:03:54;;;;;;;16.50;3.50;;;;;;;9.30;62.85;100241.45;107688;1270;138331;-71
2022/05/15 03:06:27;;;;;;;8.60;3.10;;;;;;;9.30;62.92;100237.84;106828;1271;108798;-70
2022/05/15 03:08:59;;;;;;;9.00;2.90;;;;;;;9.30;63.01;100241.80;106389;1270;106968;-69
2022/05/15 03:11:32;;;;;;;9.00;2.80;;;;;;;9.34;63.02;100239.30;107654;1272;138148;-69
2022/05/15 03:14:04;;;;;;;9.90;3.10;;;;;;;9.37;63.06;100239.20;107044;1273;97814;-69
2022/05/15 03:16:37;;;;;;;7.70;3.50;;;;;;;9.40;62.96;100241.89;107700;1270;137646;-69
2022/05/15 03:19:10;;;;;;;7.10;3.10;;;;;;;9.43;63.11;100245.78;106924;1270;105928;-69
2022/05/15 03:21:42;;;;;;;11.70;3.70;;;;;;;9.46;63.07;100249.00;106358;1270;138017;-69
2022/05/15 03:24:15;;;;;;;10.50;3.90;;;;;;;9.45;63.00;100247.83;106202;1273;97856;-69
2022/05/15 03:26:49;;;;;;;7.20;3.20;;;;;;;9.45;63.01;100248.18;106346;1270;99178;-70
2022/05/15 03:29:22;;;;;;;11.90;3.60;;;;;;;9.46;62.94;100250.23;106330;1270;137762;-70
2022/05/15 03:31:54;;;;;;;12.10;3.80;;;;;;;9.47;62.94;100253.15;106294;1270;108637;-70
2022/05/15 03:34:26;;;;;;;10.10;3.40;;;;;;;9.49;63.02;100252.58;107656;1271;139105;-70
2022/05/15 03:36:59;;;;;;;13.90;3.30;;;;;;;9.51;62.97;100258.06;107590;1270;96068;-70
2022/05/15 03:39:31;;;;;;;10.60;3.50;;;;;;;9.54;62.95;100259.22;107457;1270;139590;-70
2022/05/15 03:42:03;;;;;;;8.20;3.10;;;;;;;9.57;62.93;100260.52;107828;1270;112500;-69
2022/05/15 03:44:37;;;;;;;10.50;3.30;;;;;;;9.61;62.90;100259.16;106470;1270;108952;-70
2022/05/15 03:47:10;;;;;;;8.70;3.40;;;;;;;9.64;62.78;100263.60;107743;1270;138771;-69
2022/05/15 03:49:43;;;;;;;8.50;3.40;;;;;;;9.67;62.79;100269.93;107268;1271;97922;-71
2022/05/15 03:52:16;;;;;;;11.90;3.90;;;;;;;9.71;62.77;100270.73;107733;1270;137695;-70
2022/05/15 03:54:48;;;;;;;8.50;4.00;;;;;;;9.69;62.74;100268.86;106645;1270;111442;-70
2022/05/15 03:57:20;;;;;;;10.80;3.90;;;;;;;9.68;62.82;100266.45;107090;1269;137915;-71
2022/05/15 03:59:52;;;;;;;12.60;4.10;;;;;;;9.71;62.93;100272.29;107373;1270;107724;-70
2022/05/15 04:02:25;;;;;;;12.20;4.10;;;;;;;9.73;62.96;100271.20;106259;1270;97965;-70
2022/05/15 04:04:57;;;;;;;10.50;3.70;;;;;;;9.74;63.03;100274.47;107492;1270;138669;-71
2022/05/15 04:07:29;;;;;;;8.40;3.30;;;;;;;9.78;62.97;100276.41;107745;1271;112580;-71
2022/05/15 04:10:02;;;;;;;11.20;3.50;;;;;;;9.83;62.95;100278.36;107663;1270;138997;-70
2022/05/15 04:12:34;;;;;;;11.30;3.50;;;;;;;9.91;62.97;100284.56;107824;1268;108842;-71
2022/05/15 04:15:07;;;;;;;8.50;3.40;;;;;;;9.96;62.84;100285.46;107802;1270;96179;-71
2022/05/15 04:17:44;;;;;;;9.30;3.80;;;;;;;10.02;62.85;100292.38;107899;1270;96210;-71
2022/05/15 04:20:19;;;;;;;11.50;3.80;;;;;;;10.10;62.85;100293.71;106326;1271;111401;-70
2022/05/15 04:22:51;;;;;;;11.60;4.20;;;;;;;10.17;62.76;100297.34;106921;1270;138682;-70
2022/05/15 04:25:24;;;;;;;12.50;4.50;;;;;;;10.23;62.73;100296.33;106417;1270;108835;-70
2022/05/15 04:27:57;;;;;;;12.80;4.50;;;;;;;10.28;62.61;100295.48;105973;1271;246661;-69
2022/05/15 04:30:30;;;;;;;11.30;4.50;;;;;;;10.34;62.59;100295.31;106614;1270;97901;-70
2022/05/15 04:33:02;;;;;;;11.50;4.60;;;;;;;10.37;62.60;100299.19;106288;1270;111388;-70
2022/05/15 04:35:34;;;;;;;13.00;4.20;;;;;;;10.43;62.54;100297.11;106938;1270;107428;-68
2022/05/15 04:38:08;;;;;;;9.50;3.90;;;;;;;10.51;62.54;100298.08;106162;1271;108959;-68
2022/05/15 04:40:40;;;;;;;11.00;3.50;;;;;;;10.62;62.39;100298.61;106175;1270;138799;-68
2022/05/15 04:43:12;;;;;;;8.20;3.50;;;;;;;10.76;62.38;100297.81;107422;1270;97915;-69
2022/05/15 04:45:45;;;;;;;8.60;3.90;;;;;;;10.93;62.18;100298.98;107749;1270;137979;-70
2022/05/15 04:48:17;;;;;;;9.50;3.70;;;;;;;11.10;61.87;100298.59;107862;1270;107848;-69
2022/05/15 04:50:49;;;;;;;10.40;3.60;;;;;;;11.25;61.56;100299.14;107828;1270;107709;-69
2022/05/15 04:53:27;;;;;;;10.00;3.30;;;;;;;11.37;61.24;100299.06;107009;1270;137833;-69
2022/05/15 04:56:00;;;;;;;9.70;3.40;;;;;;;11.50;60.83;100298.27;106333;1270;98155;-69
2022/05/15 04:58:32;;;;;;;8.60;3.60;;;;;;;11.62;60.58;100300.45;107297;1270;137603;-70
2022/05/15 05:01:04;;;;;;;11.20;3.10;;;;;;;11.77;60.27;100299.40;106247;1270;108730;-69
2022/05/15 05:03:37;;;;;;;10.10;2.90;;;;;;;11.90;59.88;100302.44;107181;1269;138997;-71
2022/05/15 05:06:09;;;;;;;17.30;3.70;;;;;;;12.09;59.49;100305.23;106922;1270;97838;-69
2022/05/15 05:08:42;;;;;;;9.40;3.10;;;;;;;12.25;58.86;100304.09;106297;1270;97793;-70
2022/05/15 05:11:14;;;;;;;9.80;2.80;;;;;;;12.43;58.48;100307.05;106180;1270;137877;-70
2022/05/15 05:13:46;;;;;;;11.30;3.50;;;;;;;12.66;58.02;100305.80;106304;1270;108913;-70
2022/05/15 05:16:18;;;;;;;7.70;2.80;;;;;;;12.97;57.65;100305.77;107424;1270;138217;-71
2022/05/15 05:18:51;;;;;;;11.30;4.50;;;;;;;13.73;57.03;100306.23;107516;1270;97869;-71
2022/05/15 05:21:23;;;;;;;6.50;1.90;;;;;;;15.51;55.59;100302.02;106873;1270;138127;-69
2022/05/15 05:23:55;;;;;;;6.90;2.20;;;;;;;17.66;52.04;100299.50;107324;1270;113085;-69
2022/05/15 05:26:27;;;;;;;6.00;2.00;;;;;;;19.71;47.95;100297.46;107858;1270;108285;-69
2022/05/15 05:28:59;;;;;;;9.70;1.70;;;;;;;21.34;45.33;100293.63;106962;1271;137767;-68
2022/05/15 05:31:31;;;;;;;12.10;2.10;;;;;;;23.00;42.41;100283.95;106621;1270;97813;-70
2022/05/15 05:34:04;;;;;;;8.50;1.60;;;;;;;24.35;39.99;100284.20;107312;1270;138385;-71
2022/05/15 05:36:36;;;;;;;7.20;1.80;;;;;;;25.64;37.80;100283.42;107240;1270;110934;-69
2022/05/15 05:39:08;;;;;;;8.10;2.00;;;;;;;26.81;35.89;100282.55;107408;1270;109222;-69
2022/05/15 05:41:40;;;;;;;7.10;1.50;;;;;;;27.93;33.82;100278.39;106928;1270;107761;-69
2022/05/15 05:44:12;;;;;;;6.20;1.80;;;;;;;28.86;32.36;100274.98;107092;1269;97927;-68
2022/05/15 05:46:45;;;;;;;4.70;1.60;;;;;;;29.77;30.87;100274.02;106193;1270;137775;-69
2022/05/15 05:49:18;;;;;;;5.70;1.90;;;;;;;30.58;29.46;100274.42;106408;1270;109943;-69
2022/05/15 05:51:51;;;;;;;8.90;1.80;;;;;;;31.11;27.82;100270.02;107714;1270;138173;-70
2022/05/15 05:54:22;;;;;;;4.70;1.70;;;;;;;31.67;26.87;100267.46;107362;1270;108851;-70
2022/05/15 05:56:54;;;;;;;3.70;1.60;;;;;;;32.12;25.61;100267.69;106509;1270;97701;-69
2022/05/15 05:59:26;;;;;;;5.40;1.70;;;;;;;32.46;24.89;100265.41;107706;1270;137562;-70
2022/05/15 06:01:58;;;;;;;4.20;1.50;;;;;;;32.22;24.70;100269.36;107838;1270;109596;-70
2022/05/15 06:04:41;;;;;;;6.50;1.90;;;;;;;32.54;24.16;100270.82;107730;1270;137939;-69
2022/05/15 06:07:16;;;;;;;4.80;1.70;;;;;;;32.54;24.11;100274.48;107828;1270;108048;-69
2022/05/15 06:09:49;;;;;;;5.60;1.80;;;;;;;32.38;22.63;100272.05;107725;1270;138078;-70
2022/05/15 06:12:23;;;;;;;5.20;1.90;;;;;;;32.12;23.38;100274.58;107359;1270;97858;-70
2022/05/15 06:14:56;;;;;;;9.10;2.20;;;;;;;32.46;22.83;100270.44;107152;1270;111770;-70
2022/05/15 06:17:30;;;;;;;5.90;2.10;;;;;;;32.99;22.62;100273.27;107419;1270;137844;-70
2022/05/15 06:20:07;;;;;;;9.00;2.00;;;;;;;33.46;22.33;100280.64;107411;1270;108273;-70
2022/05/15 06:22:39;;;;;;;6.10;1.60;;;;;;;33.89;22.03;100282.56;107768;1270;137770;-70
2022/05/15 06:25:12;;;;;;;4.80;1.50;;;;;;;34.34;20.83;100284.24;106629;1270;97806;-71
2022/05/15 06:27:44;;;;;;;5.70;2.20;;;;;;;34.54;20.16;100284.36;107115;1270;138500;-70
2022/05/15 06:30:17;;;;;;;7.50;2.40;;;;;;;34.79;20.02;100289.34;107871;1270;109041;-68
2022/05/15 06:32:49;;;;;;;4.80;2.10;;;;;;;35.21;19.31;100283.27;107869;1270;108999;-69
2022/05/15 06:35:22;;;;;;;6.60;1.60;;;;;;;35.25;19.33;100286.52;107766;1270;138287;-69
2022/05/15 06:37:54;;;;;;;4.70;1.40;;;;;;;35.57;19.11;100281.82;107883;1270;96214;-69
2022/05/15 06:40:27;;;;;;;4.50;1.60;;;;;;;35.90;18.19;100289.11;106987;1270;138165;-69
2022/05/15 06:42:59;;;;;;;4.70;1.70;;;;;;;35.63;17.66;100285.46;106533;1270;109147;-68
2022/05/15 06:45:32;;;;;;;5.40;1.70;;;;;;;35.29;17.96;100286.98;107751;1270;138155;-69
2022/05/15 06:48:04;;;;;;;5.20;1.60;;;;;;;34.51;18.19;100290.04;107866;1270;96059;-69
2022/05/15 06:50:36;;;;;;;5.60;1.70;;;;;;;34.51;18.35;100293.52;107905;1270;95797;-71
2022/05/15 06:53:13;;;;;;;7.40;3.40;;;;;;;35.18;18.37;100293.08;107722;1269;138042;-69
2022/05/15 06:58:33;;;;;;;9.20;2.00;;;;;;;35.69;17.33;100296.61;107712;1270;137889;-70
2022/05/15 07:01:06;;;;;;;6.30;1.70;;;;;;;34.82;17.53;100308.60;107874;1270;96035;-70
2022/05/15 07:03:38;;;;;;;4.60;1.40;;;;;;;34.90;17.82;100300.17;107751;1270;138009;-69
2022/05/15 07:06:10;;;;;;;5.70;1.40;;;;;;;35.33;17.52;100304.44;107033;1271;111434;-69
2022/05/15 07:08:43;;;;;;;7.60;1.80;;;;;;;34.82;17.73;100308.61;106312;1271;108777;-70
2022/05/15 07:11:15;;;;;;;6.70;1.60;;;;;;;35.15;17.91;100300.58;107735;1270;137779;-70
2022/05/15 07:13:47;;;;;;;5.30;1.70;;;;;;;35.52;17.43;100304.59;107857;1270;96021;-70
2022/05/15 07:16:19;;;;;;;7.20;2.30;;;;;;;35.13;16.95;100305.84;107755;1270;137653;-71
2022/05/15 07:18:51;;;;;;;8.90;3.60;;;;;;;35.11;16.76;100306.54;107872;1270;112213;-71
2022/05/15 07:21:25;;;;;;;6.20;2.40;;;;;;;35.16;16.76;100302.48;107723;1270;138903;-70
2022/05/15 07:23:57;;;;;;;7.10;2.20;;;;;;;35.40;16.71;100309.20;107588;1270;108803;-70
2022/05/15 07:26:29;;;;;;;6.40;1.90;;;;;;;35.90;16.76;100313.40;107360;1270;97708;-70
2022/05/15 07:29:01;;;;;;;5.10;1.40;;;;;;;36.25;16.38;100308.53;107782;1270;137775;-70
2022/05/15 07:31:33;;;;;;;7.40;1.80;;;;;;;35.06;16.20;100314.14;107885;1270;112537;-70
2022/05/15 07:34:05;;;;;;;5.30;1.50;;;;;;;33.81;16.72;100319.38;106723;1271;138003;-69
2022/05/15 07:36:38;;;;;;;5.70;1.80;;;;;;;32.62;17.17;100325.54;107846;1271;109002;-71
2022/05/15 07:39:10;;;;;;;8.00;1.90;;;;;;;31.58;18.24;100326.93;107866;1271;95818;-71
2022/05/15 07:41:42;;;;;;;5.90;1.70;;;;;;;30.80;18.33;100330.06;106585;1271;97899;-70
2022/05/15 07:44:14;;;;;;;8.30;1.60;;;;;;;29.29;18.98;100335.93;106326;1271;112705;-69
2022/05/15 07:46:47;;;;;;;6.10;1.40;;;;;;;28.37;19.89;100338.92;106970;1271;138194;-70
2022/05/15 07:49:19;;;;;;;5.60;1.40;;;;;;;28.46;20.59;100336.77;107404;1271;108767;-70
2022/05/15 07:51:52;;;;;;;5.60;1.40;;;;;;;28.86;20.37;100326.68;107754;1271;138000;-70
2022/05/15 07:54:24;;;;;;;6.20;1.60;;;;;;;28.57;20.30;100339.13;107844;1271;96251;-70
2022/05/15 07:56:56;;;;;;;5.90;1.60;;;;;;;28.87;20.39;100339.09;107856;1271;112295;-71
2022/05/15 07:59:29;;;;;;;6.00;1.50;;;;;;;29.68;20.16;100337.92;106723;1271;138116;-70
2022/05/15 08:02:06;;;;;;;4.40;1.30;;;;;;;30.03;19.97;100337.06;107499;1271;107717;-70
2022/05/15 08:10:14;;;;;;;5.70;1.50;;;;;;;27.53;21.13;100348.16;107707;1271;137701;-70
2022/05/15 08:12:47;;;;;;;6.30;1.90;;;;;;;28.15;21.25;100342.63;107427;1271;107694;-70
2022/05/15 08:15:19;;;;;;;7.80;2.00;;;;;;;28.34;21.06;100345.19;107226;1271;138606;-69
2022/05/15 08:17:51;;;;;;;5.70;1.90;;;;;;;28.08;21.15;100350.89;107820;1271;96215;-70
2022/05/15 08:26:02;;;;;;;6.10;1.30;;;;;;;29.45;20.91;100343.92;107794;1271;108860;-70
2022/05/15 08:28:35;;;;;;;5.10;1.40;;;;;;;29.76;20.33;100349.25;106684;1271;138366;-70
2022/05/15 08:31:09;;;;;;;5.00;1.50;;;;;;;30.05;20.09;100351.17;106521;1271;98399;-70
2022/05/15 08:33:42;;;;;;;4.70;1.70;;;;;;;30.45;19.79;100354.25;106179;1271;137875;-70
2022/05/15 08:36:14;;;;;;;6.40;1.90;;;;;;;30.84;19.71;100356.39;107610;1271;112400;-70
2022/05/15 08:38:46;;;;;;;7.60;1.80;;;;;;;31.10;19.60;100348.13;107852;1271;107855;-70
2022/05/15 08:41:25;;;;;;;6.50;1.60;;;;;;;31.06;19.52;100355.42;107302;1270;137948;-70
2022/05/15 08:44:04;;;;;;;6.60;1.80;;;;;;;30.19;19.27;100356.61;107413;1269;97601;-70
2022/05/15 08:46:46;;;;;;;5.10;1.80;;;;;;;29.63;19.78;100356.91;107744;1270;137626;-70
2022/05/15 08:49:23;;;;;;;6.10;1.70;;;;;;;29.75;20.06;100356.95;107848;1271;112721;-70
2022/05/15 08:52:01;;;;;;;4.90;1.90;;;;;;;30.16;20.01;100356.23;106856;1271;138514;-69
2022/05/15 08:54:37;;;;;;;5.30;1.80;;;;;;;29.88;19.40;100358.67;107170;1271;108875;-70
2022/05/15 08:57:11;;;;;;;;;;;;;;;28.66;19.77;100365.13;107864;1270;96211;-71
2022/05/15 08:59:52;;;;;;;6.40;1.70;;;;;;;28.21;20.50;100364.33;106684;1271;97835;-70
2022/05/15 09:02:25;;;;;;;5.60;1.70;;;;;;;28.52;20.95;100363.40;107838;1270;112401;-70
2022/05/15 09:04:57;;;;;;;6.20;1.90;;;;;;;28.67;20.58;100369.13;106848;1270;138413;-70
2022/05/15 09:07:41;;;;;;;7.40;1.70;;;;;;;27.87;20.84;100367.46;107056;1270;108357;-70
2022/05/15 09:10:37;;;;;;;5.80;1.50;;;;;;;27.29;21.47;100370.52;107689;1270;139018;-71
2022/05/15 09:13:16;;;;;;;6.10;1.40;;;;;;;26.89;22.17;100380.10;107828;1269;96108;-71
2022/05/15 09:16:02;;;;;;;6.60;1.90;;;;;;;27.03;22.25;100377.38;107715;1270;137882;-71
2022/05/15 09:18:37;;;;;;;;;;;;;;;26.85;22.23;100382.45;107860;1270;108744;-71
2022/05/15 09:21:12;;;;;;;4.30;1.60;;;;;;;26.50;22.20;100389.26;107785;1271;108635;-70
2022/05/15 09:23:50;;;;;;;6.00;1.60;;;;;;;26.70;22.35;100396.23;107808;1270;96100;-69
2022/05/15 09:26:28;;;;;;;7.30;2.00;;;;;;;27.10;22.34;100383.88;107858;1270;96016;-71
2022/05/15 09:29:04;;;;;;;14.50;2.50;;;;;;;27.46;22.06;100380.12;107684;1269;137649;-71
2022/05/15 09:31:43;;;;;;;21.40;5.10;;;;;;;27.25;22.22;100384.05;107789;1271;108893;-66
2022/05/15 09:34:27;;;;;;;12.90;2.60;;;;;;;27.38;22.35;100386.48;107729;1268;138480;-66
2022/05/15 09:39:52;;;;;;;7.90;1.80;;;;;;;28.21;21.74;100385.20;107702;1270;138963;-65
2022/05/15 09:45:26;;;;;;;7.30;1.80;;;;;;;28.53;21.20;100390.03;107746;1270;138943;-64
2022/05/15 09:48:06;;;;;;;4.40;1.90;;;;;;;28.86;21.15;100387.71;106998;1270;108946;-63
2022/05/15 09:50:57;;;;;;;5.60;1.40;;;;;;;28.48;20.96;100386.02;107815;1270;96298;-70
2022/05/15 09:53:39;;;;;;;6.40;1.60;;;;;;;27.66;21.25;100395.59;107144;1270;138885;-71
2022/05/15 09:56:23;;;;;;;7.40;1.60;;;;;;;27.39;21.71;100395.77;107372;1270;112432;-71
2022/05/15 09:58:57;;;;;;;5.40;1.60;;;;;;;27.57;22.15;100392.86;107612;1270;139759;-71
2022/05/15 10:01:37;;;;;;;4.80;1.70;;;;;;;27.87;21.87;100390.94;107304;1271;109121;-70
2022/05/15 10:04:20;;;;;;;4.00;1.40;;;;;;;28.20;21.80;100388.08;107609;1270;138602;-72
2022/05/15 10:06:55;;;;;;;8.70;1.50;;;;;;;28.28;21.41;100391.20;107730;1270;96084;-72
2022/05/15 10:09:31;;;;;;;3.90;1.10;;;;;;;28.09;21.19;100395.48;107688;1270;137746;-72
2022/05/15 10:12:07;;;;;;;4.80;1.50;;;;;;;27.29;21.26;100400.25;107785;1270;108623;-71
2022/05/15 10:14:45;;;;;;;6.60;1.50;;;;;;;26.98;21.95;100405.00;107810;1270;108866;-73
2022/05/15 10:17:17;;;;;;;4.60;1.50;;;;;;;27.29;22.14;100393.91;107595;1270;137862;-73
2022/05/15 10:19:54;;;;;;;4.70;1.10;;;;;;;27.64;21.85;100383.08;107844;1270;96087;-71
2022/05/15 10:22:36;;;;;;;6.20;1.50;;;;;;;27.58;21.74;100381.58;107729;1270;137750;-72
2022/05/15 10:25:29;;;;;;;6.20;1.70;;;;;;;26.81;21.96;100397.20;107847;1270;109036;-72
2022/05/15 10:28:13;;;;;;;7.70;1.80;;;;;;;26.61;22.53;100398.73;107672;1271;138685;-71
2022/05/15 10:31:02;;;;;;;3.90;1.50;;;;;;;26.76;22.43;100401.12;107762;1271;96445;-70
2022/05/15 10:33:39;;;;;;;4.10;1.60;;;;;;;27.02;22.27;100392.46;106144;1271;138591;-71
2022/05/15 10:36:27;;;;;;;5.30;1.40;;;;;;;27.05;21.91;100388.81;107806;1270;111447;-71
2022/05/15 10:39:10;;;;;;;4.20;1.50;;;;;;;27.19;22.20;100388.71;107756;1271;108889;-71
2022/05/15 10:41:54;;;;;;;5.70;1.40;;;;;;;27.08;22.07;100384.77;107400;1271;108951;-71
2022/05/15 10:44:42;;;;;;;6.80;1.50;;;;;;;26.71;22.00;100392.38;106186;1270;97825;-72
2022/05/15 10:47:13;;;;;;;;;;;;;;;26.04;21.99;100392.58;106102;1271;138209;-73
2022/05/15 10:50:07;;;;;;;4.50;1.60;;;;;;;25.71;22.49;100389.77;107808;1271;112826;-71
2022/05/15 10:52:48;;;;;;;5.80;1.60;;;;;;;25.84;22.86;100388.52;107717;1271;138092;-71
2022/05/15 10:58:21;;;;;;;3.50;1.30;;;;;;;25.90;22.81;100386.91;107665;1271;139330;-72
2022/05/15 11:01:04;;;;;;;7.20;1.70;;;;;;;25.98;22.53;100382.96;107769;1271;96121;-71
2022/05/15 11:03:59;;;;;;;2.40;1.30;;;;;;;26.06;22.90;100381.89;106394;1271;137852;-71
2022/05/15 11:06:50;;;;;;;6.30;1.60;;;;;;;25.99;23.02;100380.79;106233;1271;108567;-72
2022/05/15 11:09:33;;;;;;;4.20;1.30;;;;;;;25.79;22.99;100380.32;106978;1271;138145;-71
2022/05/15 11:12:27;;;;;;;4.50;1.20;;;;;;;25.76;22.83;100380.58;106128;1273;98014;-71
2022/05/15 11:15:13;;;;;;;6.60;1.40;;;;;;;25.85;23.25;100384.02;106276;1271;97890;-72
2022/05/15 11:17:54;;;;;;;5.90;1.70;;;;;;;25.97;23.28;100378.61;107810;1271;111467;-72
2022/05/15 11:20:32;;;;;;;5.50;1.50;;;;;;;25.97;23.03;100383.83;107721;1271;108829;-72
2022/05/15 11:23:11;;;;;;;3.50;1.80;;;;;;;25.81;22.71;100378.34;107641;1271;138149;-71
2022/05/15 11:25:49;;;;;;;5.60;1.50;;;;;;;25.64;22.94;100378.78;106802;1273;97941;-71
2022/05/15 11:28:30;;;;;;;5.60;1.90;;;;;;;25.54;22.88;100369.95;105965;1271;137784;-72
2022/05/15 11:31:09;;;;;;;5.70;2.00;;;;;;;25.23;22.77;100368.95;107749;1271;111797;-72
2022/05/15 11:33:53;;;;;;;6.70;1.80;;;;;;;24.99;23.15;100377.13;107682;1271;138051;-72
2022/05/15 11:36:40;;;;;;;4.40;1.10;;;;;;;24.93;23.56;100379.81;107733;1271;109256;-72
2022/05/15 11:39:27;;;;;;;5.70;1.50;;;;;;;24.89;23.21;100371.98;107816;1271;96242;-72
2022/05/15 11:42:17;;;;;;;6.90;1.70;;;;;;;24.80;23.35;100368.72;107123;1270;98237;-71
2022/05/15 11:44:51;;;;;;;7.00;1.60;;;;;;;24.67;23.57;100369.86;106242;1271;111595;-70
2022/05/15 11:47:34;;;;;;;4.50;1.30;;;;;;;24.63;23.72;100367.59;107126;1270;137963;-71
2022/05/15 11:50:15;;;;;;;5.70;1.60;;;;;;;24.78;23.84;100365.40;106648;1271;108836;-72
2022/05/15 11:53:07;;;;;;;7.30;2.20;;;;;;;24.73;23.26;100361.11;107215;1271;138355;-71
2022/05/15 11:55:55;;;;;;;3.90;1.60;;;;;;;24.54;23.50;100371.70;107800;1269;95897;-76
2022/05/15 11:58:34;;;;;;;4.70;1.40;;;;;;;24.43;23.65;100363.13;107620;1271;138259;-74
2022/05/15 12:01:40;;;;;;;8.30;1.50;;;;;;;24.48;24.03;100363.44;107836;1270;109165;-75
2022/05/15 12:04:23;;;;;;;7.80;1.70;;;;;;;24.43;23.94;100367.01;107677;1270;137818;-76
2022/05/15 12:07:30;;;;;;;4.50;1.50;;;;;;;24.37;24.15;100359.94;107851;1270;96222;-76
2022/05/15 12:10:03;;;;;;;4.50;1.40;;;;;;;24.34;24.54;100361.63;107708;1269;139415;-76
2022/05/15 12:13:08;;;;;;;5.30;1.30;;;;;;;24.44;24.39;100361.10;107807;1271;112184;-76